Palau, Palau
Current Conditions -  °F | °C
As of 6:50 PM on Monday 22 Dec 2014 (Local Time) from PTKR Reporting Station
Broken Clouds Broken Clouds  
Wind Chill: 83°   Ceiling: 30000
Heat Index: 92°   Visibility: 15mi
Dew Point: 78°   Wind: 8mph
Humidity: 84%   Direction: 40°NE
Pressure: 29.79"   Gusts: NA
Location:  7.33°N, 134.48°E
Report Text: PTKR 220950Z 04007KT 15SM FEW018 FEW120 BKN300 28/25 A2979 RMK SLP089 T02830253
Loading
Personal Weather Stations






























Interactive Weather Map New forecast layout! Learn more

10-Day Weather Forecast

Advertisements
Track Severe Weather on mobile